AA05 weather

Ugashik Narrows Airport
King Salmon, Alaska, United States

Public forecast

Using degrees Fahrenheit for public forecast. Weather courtesy of forecast.io.

METAR (pilot weather report)

Report is more than 6 hours old.

Closest report is Pilot Point Airport, 25.3 nm (46.8 km) W. Retrieved 2019/09/01 23:56 UTC (20 days ago):

PAPN 012356Z AUTO 16020G30KT 10SM OVC090 15/12 A2919 RMK AO2 PK WND 15030/2349 SLP887 P0002 60014 T01500117 10150 20133 58005 PWINO $

TAF (pilot weather forecast)

Closest forecast is King Salmon Airport, 67.3 nm (124.6 km) N. Retrieved 2019/09/22 06:33 UTC (44 minutes ago):

TAF PAKN 220528Z 2206/2306 18006KT 6SM -RA SCT025 BKN040 TEMPO 2206/2210 5SM -RA BKN025 BKN040 FM221800 12008KT P6SM BKN040 FM222100 09012G20KT P6SM -SHRA OVC035